Time;durP1;ratioP1;P1;durP2;ratioP2;P2;SDS_P1;SDS_P2;PMS_P1;PMS_P2;Temp;Humidity;BMP_temperature;BMP_pressure;BME280_temperature;BME280_humidity;BME280_pressure;Samples;Min_cycle;Max_cycle;Signal;HPM_P1;HPM_P2
2023/06/05 00:02:29;;;;;;;3.63;3.28;;;19.70;59.80;;;;;;4209562;28;20104;-60
2023/06/05 00:05:10;;;;;;;5.00;3.42;;;19.70;59.70;;;;;;4209492;28;20051;-61
2023/06/05 00:07:51;;;;;;;3.20;2.92;;;19.70;59.70;;;;;;4209641;28;20077;-62
2023/06/05 00:10:32;;;;;;;3.33;3.13;;;19.70;59.70;;;;;;4208814;28;20129;-59
2023/06/05 00:13:13;;;;;;;4.95;3.05;;;19.70;59.60;;;;;;4208000;28;20505;-61
2023/06/05 00:15:54;;;;;;;4.15;2.80;;;19.70;59.60;;;;;;4207570;28;20047;-61
2023/06/05 00:18:37;;;;;;;5.57;2.90;;;19.60;59.60;;;;;;4209248;28;20154;-61
2023/06/05 00:21:19;;;;;;;3.67;3.20;;;19.60;59.80;;;;;;4208211;28;20070;-61
2023/06/05 00:24:00;;;;;;;4.10;3.08;;;19.60;59.90;;;;;;4209345;28;20089;-61
2023/06/05 00:26:41;;;;;;;4.47;4.00;;;19.60;59.90;;;;;;4209152;28;20398;-61
2023/06/05 00:29:22;;;;;;;3.38;3.08;;;19.60;59.90;;;;;;4208813;28;20058;-59
2023/06/05 00:32:03;;;;;;;3.50;3.20;;;19.60;61.10;;;;;;4208130;28;20410;-61
2023/06/05 00:34:46;;;;;;;5.20;3.88;;;19.60;60.10;;;;;;4203234;28;20052;-61
2023/06/05 00:37:27;;;;;;;6.47;4.30;;;19.60;60.80;;;;;;4192325;28;20046;-61
2023/06/05 00:40:09;;;;;;;3.67;3.35;;;19.60;59.90;;;;;;4192403;28;20399;-61
2023/06/05 00:42:50;;;;;;;5.60;4.15;;;19.60;59.80;;;;;;4191042;28;20206;-61
2023/06/05 00:45:31;;;;;;;4.35;3.92;;;19.60;59.70;;;;;;4192163;28;20052;-63
2023/06/05 00:48:12;;;;;;;6.40;4.10;;;19.60;59.80;;;;;;4192404;28;20048;-61
2023/06/05 00:50:54;;;;;;;6.65;3.30;;;19.50;59.80;;;;;;4191447;28;20055;-60
2023/06/05 00:53:38;;;;;;;5.97;3.63;;;19.50;59.80;;;;;;4192317;28;20146;-61
2023/06/05 00:56:20;;;;;;;5.38;3.60;;;19.50;59.90;;;;;;4192132;28;20067;-61
2023/06/05 00:59:02;;;;;;;5.05;3.63;;;19.50;59.80;;;;;;4191264;28;20055;-60
2023/06/05 01:01:45;;;;;;;3.10;2.90;;;19.50;59.70;;;;;;4191956;28;20483;-60
2023/06/05 01:04:27;;;;;;;2.67;2.30;;;19.50;59.80;;;;;;4190791;28;20063;-60
2023/06/05 01:07:11;;;;;;;3.95;3.05;;;19.50;59.90;;;;;;4189290;28;20102;-60
2023/06/05 01:09:52;;;;;;;3.78;2.80;;;19.50;59.80;;;;;;4175756;28;20056;-60
2023/06/05 01:12:42;;;;;;;3.42;3.13;;;19.50;60.00;;;;;;4175607;28;20538;-60
2023/06/05 01:15:28;;;;;;;4.57;3.17;;;19.40;59.90;;;;;;4189776;28;20063;-60
2023/06/05 01:18:10;;;;;;;4.70;2.75;;;19.40;60.00;;;;;;4190921;28;20047;-62
2023/06/05 01:20:52;;;;;;;3.40;3.10;;;19.40;60.20;;;;;;4192315;28;20062;-60
2023/06/05 01:23:44;;;;;;;3.58;3.30;;;19.40;60.20;;;;;;4191933;28;20059;-59
2023/06/05 01:26:31;;;;;;;8.38;3.08;;;19.40;60.20;;;;;;4175302;28;20075;-60
2023/06/05 01:29:15;;;;;;;3.17;2.97;;;19.40;60.20;;;;;;4174086;28;20080;-59
2023/06/05 01:32:02;;;;;;;3.78;2.80;;;19.40;60.30;;;;;;4175326;28;20110;-59
2023/06/05 01:34:48;;;;;;;2.90;2.72;;;19.40;60.50;;;;;;4173894;28;20499;-60
2023/06/05 01:37:36;;;;;;;3.30;3.00;;;19.40;61.50;;;;;;4174895;28;20618;-59
2023/06/05 01:40:22;;;;;;;3.83;3.20;;;19.40;60.60;;;;;;4174018;28;20124;-60
2023/06/05 01:43:06;;;;;;;3.80;2.97;;;19.30;60.30;;;;;;4183211;28;20063;-60
2023/06/05 01:45:48;;;;;;;4.00;3.10;;;19.30;60.40;;;;;;4193441;28;20059;-60
2023/06/05 01:48:30;;;;;;;3.80;3.42;;;19.30;60.50;;;;;;4193792;28;20051;-60
2023/06/05 01:51:11;;;;;;;3.45;3.15;;;19.30;60.60;;;;;;4193675;28;20056;-60
2023/06/05 01:53:52;;;;;;;4.03;3.67;;;19.30;61.60;;;;;;4193416;28;20052;-60
2023/06/05 01:56:36;;;;;;;7.82;3.38;;;19.30;60.70;;;;;;4193776;28;20166;-59
2023/06/05 01:59:17;;;;;;;3.40;3.20;;;19.30;60.40;;;;;;4193695;28;20047;-60
2023/06/05 02:01:58;;;;;;;3.65;3.10;;;19.30;60.50;;;;;;4177125;28;20075;-60
2023/06/05 02:04:39;;;;;;;2.92;2.72;;;19.30;60.40;;;;;;4188740;28;20055;-60
2023/06/05 02:07:21;;;;;;;2.75;2.58;;;19.30;60.30;;;;;;4176796;28;20056;-59
2023/06/05 02:10:02;;;;;;;3.42;3.13;;;19.30;60.50;;;;;;4177044;28;20404;-60
2023/06/05 02:12:44;;;;;;;3.60;3.30;;;19.20;60.60;;;;;;4192511;28;20173;-60
2023/06/05 02:15:25;;;;;;;3.65;3.30;;;19.20;60.80;;;;;;4193052;28;20060;-60
2023/06/05 02:18:07;;;;;;;3.42;3.22;;;19.20;60.80;;;;;;4194336;28;20138;-59
2023/06/05 02:20:54;;;;;;;3.38;3.08;;;19.20;60.70;;;;;;4193205;28;20110;-60
2023/06/05 02:23:35;;;;;;;3.80;3.60;;;19.20;60.40;;;;;;4175979;28;20060;-59
2023/06/05 02:26:17;;;;;;;4.30;3.63;;;19.20;60.60;;;;;;4176456;28;20129;-60
2023/06/05 02:29:00;;;;;;;3.85;3.47;;;19.20;60.80;;;;;;4176129;28;20522;-62
2023/06/05 02:31:41;;;;;;;5.10;3.67;;;19.20;61.00;;;;;;4183089;28;20181;-61
2023/06/05 02:34:24;;;;;;;4.07;3.78;;;19.20;61.10;;;;;;4192970;28;20067;-61
2023/06/05 02:37:05;;;;;;;4.78;4.00;;;19.20;61.10;;;;;;4192589;28;20051;-60
2023/06/05 02:39:46;;;;;;;4.38;3.97;;;19.20;61.10;;;;;;4197523;28;20058;-60
2023/06/05 02:42:27;;;;;;;4.00;3.60;;;19.20;60.80;;;;;;4208908;28;20576;-61
2023/06/05 02:45:10;;;;;;;5.28;3.85;;;19.20;60.90;;;;;;4210209;28;20059;-60
2023/06/05 02:47:52;;;;;;;3.88;3.58;;;19.20;60.60;;;;;;4195489;28;20097;-60
2023/06/05 02:50:33;;;;;;;3.30;3.10;;;19.20;60.70;;;;;;4193415;28;20190;-60
2023/06/05 02:53:18;;;;;;;4.38;3.50;;;19.10;60.70;;;;;;4181469;28;20134;-60
2023/06/05 02:56:01;;;;;;;3.53;3.20;;;19.20;60.70;;;;;;4191488;28;20106;-59
2023/06/05 02:58:45;;;;;;;3.50;3.20;;;19.10;60.60;;;;;;4176013;28;20059;-60
2023/06/05 03:01:34;;;;;;;3.42;3.05;;;19.10;60.90;;;;;;4164101;28;20052;-59
2023/06/05 03:04:20;;;;;;;5.00;3.00;;;19.10;60.90;;;;;;4175733;28;20179;-59
2023/06/05 03:07:05;;;;;;;3.50;3.20;;;19.10;61.00;;;;;;4181764;28;20069;-59
2023/06/05 03:09:46;;;;;;;;;;;19.10;61.00;;;;;;4192821;28;20055;-59
2023/06/05 03:12:27;;;;;;;3.55;3.35;;;19.10;61.00;;;;;;4192426;28;19931;-60
2023/06/05 03:15:09;;;;;;;3.90;3.58;;;19.10;61.40;;;;;;4192329;28;20121;-59
2023/06/05 03:17:52;;;;;;;3.67;3.30;;;19.10;61.00;;;;;;4192522;28;20059;-59
2023/06/05 03:20:36;;;;;;;3.40;3.20;;;19.10;61.30;;;;;;4192538;28;20051;-59
2023/06/05 03:23:17;;;;;;;4.55;4.15;;;19.00;61.20;;;;;;4191932;28;20404;-60
2023/06/05 03:25:58;;;;;;;3.65;3.45;;;19.00;61.40;;;;;;4192196;28;20055;-58
2023/06/05 03:28:39;;;;;;;6.82;4.38;;;19.00;61.30;;;;;;4192020;28;20514;-60
2023/06/05 03:31:23;;;;;;;5.65;3.78;;;19.00;61.30;;;;;;4191949;28;20055;-62
2023/06/05 03:34:06;;;;;;;3.75;3.38;;;19.00;61.30;;;;;;4193401;28;20091;-61
2023/06/05 03:36:48;;;;;;;3.85;3.58;;;19.00;61.20;;;;;;4163808;28;20059;-61
2023/06/05 03:39:29;;;;;;;3.20;2.97;;;19.00;61.20;;;;;;4175488;28;20503;-62
2023/06/05 03:42:11;;;;;;;4.28;3.53;;;19.00;61.00;;;;;;4175545;28;20052;-61
2023/06/05 03:44:51;;;;;;;2.72;2.53;;;19.00;61.90;;;;;;4191600;28;20101;-61
2023/06/05 03:47:34;;;;;;;2.80;2.60;;;19.00;61.00;;;;;;4191826;28;20194;-60
2023/06/05 03:50:17;;;;;;;3.30;2.45;;;19.00;60.80;;;;;;4191823;28;20395;-59
2023/06/05 03:53:02;;;;;;;4.05;2.95;;;19.00;60.70;;;;;;4192831;28;20110;-59
2023/06/05 03:55:45;;;;;;;3.63;2.78;;;19.00;60.70;;;;;;4182038;28;20498;-59
2023/06/05 03:58:30;;;;;;;2.60;2.40;;;19.00;60.50;;;;;;4180165;28;20497;-59
2023/06/05 04:01:12;;;;;;;2.50;2.33;;;18.90;60.60;;;;;;4191266;28;20185;-59
2023/06/05 04:03:53;;;;;;;2.70;1.90;;;18.90;60.90;;;;;;4191173;28;20895;-60
2023/06/05 04:06:37;;;;;;;2.15;1.92;;;18.90;60.70;;;;;;4192783;28;20395;-59
2023/06/05 04:09:19;;;;;;;2.47;1.80;;;18.90;60.60;;;;;;4192744;28;20048;-59
2023/06/05 04:12:00;;;;;;;1.80;1.70;;;18.90;60.90;;;;;;4192540;28;20059;-59
2023/06/05 04:14:42;;;;;;;4.07;2.17;;;18.90;61.00;;;;;;4191416;28;20055;-59
2023/06/05 04:17:23;;;;;;;1.88;1.70;;;18.90;61.00;;;;;;4191410;28;20111;-60
2023/06/05 04:20:08;;;;;;;2.50;1.98;;;18.90;60.90;;;;;;4191082;28;20572;-59
2023/06/05 04:22:51;;;;;;;2.08;1.70;;;18.90;60.80;;;;;;4191016;28;20052;-60
2023/06/05 04:25:32;;;;;;;2.30;2.10;;;18.90;60.90;;;;;;4192297;28;20044;-60
2023/06/05 04:28:15;;;;;;;1.92;1.83;;;18.90;61.00;;;;;;4191204;28;20419;-60
2023/06/05 04:30:56;;;;;;;2.08;1.85;;;18.90;61.10;;;;;;4186095;28;20047;-61
2023/06/05 04:33:37;;;;;;;;;;;18.80;61.10;;;;;;4176599;28;20060;-61
2023/06/05 04:36:20;;;;;;;2.70;1.75;;;18.90;61.10;;;;;;4174580;28;19932;-61
2023/06/05 04:39:04;;;;;;;2.15;1.85;;;18.80;61.40;;;;;;4175858;28;20132;-61
2023/06/05 04:41:47;;;;;;;1.90;1.80;;;18.80;61.30;;;;;;4174644;28;20052;-61
2023/06/05 04:44:39;;;;;;;2.30;1.85;;;18.80;61.10;;;;;;4184274;28;20051;-60
2023/06/05 04:47:20;;;;;;;3.15;1.85;;;18.80;61.20;;;;;;4175713;28;20056;-60
2023/06/05 04:50:04;;;;;;;1.92;1.83;;;18.80;61.30;;;;;;4185694;28;20449;-60
2023/06/05 04:52:46;;;;;;;2.40;2.20;;;18.80;61.20;;;;;;4190995;28;20056;-59
2023/06/05 04:55:28;;;;;;;2.35;2.13;;;18.80;61.20;;;;;;4174546;28;20063;-59
2023/06/05 04:58:10;;;;;;;4.75;1.90;;;18.80;61.70;;;;;;4174511;28;20182;-59
2023/06/05 05:00:51;;;;;;;4.30;2.20;;;18.90;62.10;;;;;;4174450;28;20198;-61
2023/06/05 05:03:35;;;;;;;2.03;1.92;;;18.90;62.30;;;;;;4180548;28;20097;-61
2023/06/05 05:06:17;;;;;;;2.35;2.15;;;18.90;62.30;;;;;;4191041;28;20043;-61
2023/06/05 05:08:58;;;;;;;2.28;2.08;;;18.90;62.50;;;;;;4190989;28;20187;-60
2023/06/05 05:11:41;;;;;;;4.25;1.80;;;19.00;62.50;;;;;;4191108;28;20552;-56
2023/06/05 05:14:22;;;;;;;2.40;2.22;;;19.00;62.10;;;;;;4190804;28;20134;-56
2023/06/05 05:17:04;;;;;;;3.05;2.47;;;19.00;61.90;;;;;;4190903;28;20450;-56
2023/06/05 05:19:45;;;;;;;;;;;19.10;62.80;;;;;;4193982;28;20056;-58
2023/06/05 05:22:27;;;;;;;2.40;2.20;;;19.10;62.10;;;;;;4207431;28;20025;-59
2023/06/05 05:25:10;;;;;;;2.45;2.22;;;19.20;62.70;;;;;;4210403;28;20058;-60
2023/06/05 05:27:52;;;;;;;2.33;2.17;;;19.20;62.40;;;;;;4210126;28;20505;-59
2023/06/05 05:30:33;;;;;;;2.08;1.98;;;19.40;62.00;;;;;;4211600;28;20051;-60
2023/06/05 05:33:15;;;;;;;3.33;2.10;;;19.40;61.70;;;;;;4210962;28;20078;-59
2023/06/05 05:35:57;;;;;;;1.92;1.83;;;19.50;61.20;;;;;;4205587;28;20098;-60
2023/06/05 05:38:38;;;;;;;2.13;2.03;;;19.50;60.70;;;;;;4190609;28;20063;-59
2023/06/05 05:41:20;;;;;;;2.33;2.05;;;19.60;60.10;;;;;;4178706;28;20070;-59
2023/06/05 05:44:03;;;;;;;2.45;1.90;;;19.60;60.00;;;;;;4177909;28;20052;-59
2023/06/05 05:46:47;;;;;;;2.55;1.77;;;19.70;59.80;;;;;;4178208;28;20408;-59
2023/06/05 05:49:28;;;;;;;1.95;1.85;;;19.70;60.70;;;;;;4184069;28;20257;-60
2023/06/05 05:52:10;;;;;;;1.75;1.60;;;19.70;59.60;;;;;;4196673;28;20050;-59
2023/06/05 05:54:51;;;;;;;2.10;1.50;;;19.60;59.60;;;;;;4194658;28;20181;-60
2023/06/05 05:57:32;;;;;;;2.38;1.90;;;19.60;59.60;;;;;;4200536;28;20134;-60
2023/06/05 06:00:16;;;;;;;1.85;1.75;;;19.60;59.30;;;;;;4209534;28;20043;-59
2023/06/05 06:02:57;;;;;;;1.75;1.55;;;19.50;59.20;;;;;;4211534;28;20514;-59
2023/06/05 06:05:38;;;;;;;1.67;1.58;;;19.60;59.50;;;;;;4195247;28;20067;-59
2023/06/05 06:08:19;;;;;;;1.42;1.33;;;19.50;59.40;;;;;;4205759;28;20089;-59
2023/06/05 06:11:00;;;;;;;1.80;1.70;;;19.50;59.40;;;;;;4176845;28;20048;-59
2023/06/05 06:13:44;;;;;;;1.88;1.60;;;19.50;59.30;;;;;;4178112;28;20095;-59
2023/06/05 06:16:26;;;;;;;1.70;1.60;;;19.50;59.20;;;;;;4176880;28;20059;-59
2023/06/05 06:19:08;;;;;;;1.95;1.77;;;19.50;59.50;;;;;;4177965;28;20454;-60
2023/06/05 06:21:49;;;;;;;1.70;1.60;;;19.50;59.70;;;;;;4183883;28;20047;-59
2023/06/05 06:24:30;;;;;;;1.73;1.60;;;19.60;59.50;;;;;;4194182;28;20055;-60
2023/06/05 06:27:12;;;;;;;1.88;1.60;;;19.60;59.30;;;;;;4207453;28;20116;-60
2023/06/05 06:29:56;;;;;;;1.52;1.50;;;19.60;59.10;;;;;;4207006;28;20128;-59
2023/06/05 06:32:38;;;;;;;1.85;1.75;;;19.60;58.80;;;;;;4183041;28;20059;-59
2023/06/05 06:35:20;;;;;;;2.85;1.75;;;19.70;59.00;;;;;;4194430;28;20067;-60
2023/06/05 06:38:01;;;;;;;1.95;1.70;;;19.80;59.10;;;;;;4203525;28;20055;-57
2023/06/05 06:40:42;;;;;;;1.90;1.80;;;19.80;59.10;;;;;;4210984;28;20155;-57
2023/06/05 06:43:23;;;;;;;1.77;1.67;;;19.80;59.20;;;;;;4210910;27;20498;-58
2023/06/05 06:46:10;;;;;;;1.92;1.83;;;19.90;59.00;;;;;;4187058;28;20060;-57
2023/06/05 06:48:53;;;;;;;2.00;1.67;;;20.00;58.80;;;;;;4191601;28;20048;-56
2023/06/05 06:51:34;;;;;;;1.75;1.65;;;20.10;58.70;;;;;;4194015;28;20047;-57
2023/06/05 06:54:15;;;;;;;1.70;1.60;;;20.20;58.40;;;;;;4193742;28;20146;-58
2023/06/05 06:56:56;;;;;;;2.22;1.83;;;20.20;58.20;;;;;;4187896;28;20059;-57
2023/06/05 06:59:37;;;;;;;3.45;1.50;;;20.30;58.00;;;;;;4210895;28;20069;-58
2023/06/05 07:02:19;;;;;;;;;;;20.40;57.80;;;;;;4210031;28;20133;-59
2023/06/05 07:05:02;;;;;;;2.53;1.75;;;20.40;57.60;;;;;;4204555;28;20002;-58
2023/06/05 07:07:43;;;;;;;1.73;1.50;;;20.50;57.40;;;;;;4207023;28;20128;-58
2023/06/05 07:10:24;;;;;;;1.50;1.50;;;20.50;57.60;;;;;;4209870;28;20055;-57
2023/06/05 07:13:05;;;;;;;1.75;1.63;;;20.50;57.60;;;;;;4210566;28;20055;-57
2023/06/05 07:15:45;;;;;;;2.10;2.00;;;20.50;57.70;;;;;;4209571;28;20451;-57
2023/06/05 07:18:27;;;;;;;1.73;1.63;;;20.50;57.30;;;;;;4177198;28;20047;-58
2023/06/05 07:21:10;;;;;;;;;;;20.50;57.20;;;;;;4177746;28;20454;-58
2023/06/05 07:23:53;;;;;;;2.00;1.85;;;20.60;57.20;;;;;;4175416;28;20066;-58
2023/06/05 07:26:34;;;;;;;1.77;1.67;;;20.50;56.80;;;;;;4182647;28;20411;-57
2023/06/05 07:29:15;;;;;;;1.83;1.70;;;20.50;56.70;;;;;;4184460;28;20499;-57
2023/06/05 07:31:58;;;;;;;1.80;1.70;;;20.50;56.70;;;;;;4182055;28;20051;-57
2023/06/05 07:34:39;;;;;;;1.83;1.73;;;20.50;56.40;;;;;;4178958;28;20129;-57
2023/06/05 07:37:21;;;;;;;1.60;1.50;;;20.50;56.40;;;;;;4185271;28;20050;-57
2023/06/05 07:40:03;;;;;;;1.80;1.70;;;20.50;56.20;;;;;;4189711;28;20418;-61
2023/06/05 07:42:44;;;;;;;1.75;1.65;;;20.40;56.10;;;;;;4175147;28;20594;-57
2023/06/05 07:45:26;;;;;;;1.80;1.70;;;20.40;56.10;;;;;;4176982;28;20486;-57
2023/06/05 07:48:07;;;;;;;1.40;1.40;;;20.40;56.20;;;;;;4174972;28;20046;-56
2023/06/05 07:50:48;;;;;;;1.80;1.58;;;20.40;56.20;;;;;;4177359;28;20056;-58
2023/06/05 07:53:30;;;;;;;1.98;1.80;;;20.30;56.20;;;;;;4190400;28;20080;-58
2023/06/05 07:56:12;;;;;;;2.13;1.95;;;20.30;56.30;;;;;;4177585;28;20055;-58
2023/06/05 07:58:53;;;;;;;2.78;2.17;;;20.30;56.50;;;;;;4174380;28;20055;-57
2023/06/05 08:01:36;;;;;;;3.80;2.35;;;20.30;56.60;;;;;;4190208;28;20046;-57
2023/06/05 08:04:17;;;;;;;2.60;2.10;;;20.30;56.80;;;;;;4176202;28;20052;-57
2023/06/05 08:06:58;;;;;;;1.90;1.80;;;20.30;56.70;;;;;;4186623;28;20063;-57
2023/06/05 08:09:41;;;;;;;2.00;1.90;;;20.30;56.70;;;;;;4176173;28;20055;-57
2023/06/05 08:12:22;;;;;;;2.38;2.17;;;20.30;56.70;;;;;;4185398;28;20207;-57
2023/06/05 08:15:03;;;;;;;2.60;1.88;;;20.30;56.80;;;;;;4179255;28;20060;-57
2023/06/05 08:17:44;;;;;;;1.80;1.70;;;20.30;56.90;;;;;;4179545;28;20494;-58
2023/06/05 08:20:25;;;;;;;2.10;1.88;;;20.30;57.10;;;;;;4184795;28;20126;-57
2023/06/05 08:23:06;;;;;;;2.17;1.83;;;20.30;56.70;;;;;;4178885;28;20077;-56
2023/06/05 08:25:49;;;;;;;2.20;2.10;;;20.30;56.60;;;;;;4182910;28;20067;-58
2023/06/05 08:28:30;;;;;;;2.22;1.83;;;20.30;56.90;;;;;;4181433;28;20195;-57
2023/06/05 08:31:11;;;;;;;1.85;1.75;;;20.30;56.50;;;;;;4172302;28;20178;-57
2023/06/05 08:33:52;;;;;;;2.08;1.92;;;20.30;56.60;;;;;;4180859;28;20064;-57
2023/06/05 08:36:35;;;;;;;2.42;2.22;;;20.40;56.50;;;;;;4179200;28;20126;-57
2023/06/05 08:39:16;;;;;;;2.80;2.10;;;20.40;56.20;;;;;;4185032;28;20063;-57
2023/06/05 08:42:00;;;;;;;1.90;1.60;;;20.40;56.60;;;;;;4173724;28;20056;-56
2023/06/05 08:44:41;;;;;;;2.58;2.22;;;20.40;56.50;;;;;;4183672;28;20062;-57
2023/06/05 08:47:37;;;;;;;1.92;1.77;;;20.40;56.40;;;;;;4182845;28;20080;-57
2023/06/05 08:50:18;;;;;;;3.92;2.10;;;20.50;56.40;;;;;;4183644;28;20063;-57
2023/06/05 08:53:00;;;;;;;1.63;1.52;;;20.40;56.20;;;;;;4188886;28;20051;-57
2023/06/05 08:55:42;;;;;;;2.40;2.20;;;20.50;56.50;;;;;;4185582;28;20101;-57
2023/06/05 08:58:24;;;;;;;2.78;2.15;;;20.50;56.30;;;;;;4179038;28;20059;-57
2023/06/05 09:01:06;;;;;;;2.03;1.92;;;20.50;56.80;;;;;;4175218;28;20082;-57
2023/06/05 09:03:47;;;;;;;2.75;2.03;;;20.50;56.10;;;;;;4173632;28;20055;-57
2023/06/05 09:06:28;;;;;;;2.35;2.25;;;20.50;56.30;;;;;;4182607;28;20174;-57
2023/06/05 09:09:11;;;;;;;;;;;20.60;56.40;;;;;;4182776;28;20052;-57
2023/06/05 09:12:02;;;;;;;2.05;1.85;;;20.60;56.40;;;;;;4185227;28;20395;-56
2023/06/05 09:14:45;;;;;;;;;;;20.60;56.20;;;;;;4189464;28;20055;-58
2023/06/05 09:17:26;;;;;;;2.42;2.15;;;20.60;56.30;;;;;;4176527;28;19928;-57
2023/06/05 09:20:10;;;;;;;1.92;1.83;;;20.60;56.40;;;;;;4185811;28;20052;-57
2023/06/05 09:22:51;;;;;;;1.88;1.67;;;20.60;56.20;;;;;;4177044;28;20055;-57
2023/06/05 09:25:50;;;;;;;2.50;2.40;;;20.60;56.00;;;;;;4187297;28;20253;-57
2023/06/05 09:28:31;;;;;;;3.13;2.80;;;20.70;56.20;;;;;;4185373;28;20356;-57
2023/06/05 09:31:14;;;;;;;2.50;2.40;;;20.70;56.20;;;;;;4181586;28;20052;-57
2023/06/05 09:33:58;;;;;;;2.22;2.08;;;20.70;56.20;;;;;;4175341;28;20130;-57
2023/06/05 09:36:46;;;;;;;2.20;2.10;;;20.70;56.10;;;;;;4181061;28;20052;-58
2023/06/05 09:39:28;;;;;;;2.88;2.20;;;20.70;56.00;;;;;;4180171;28;20573;-57
2023/06/05 09:42:08;;;;;;;2.58;2.28;;;20.80;55.80;;;;;;4174249;28;20513;-58
2023/06/05 09:44:59;;;;;;;3.13;2.50;;;20.80;56.50;;;;;;4178170;28;20059;-57
2023/06/05 09:47:42;;;;;;;2.20;2.10;;;20.80;55.70;;;;;;4182481;28;20474;-57
2023/06/05 09:50:33;;;;;;;2.30;2.20;;;20.80;55.70;;;;;;4180777;28;20048;-57
2023/06/05 09:53:16;;;;;;;2.72;2.50;;;20.80;55.80;;;;;;4177119;28;20056;-57
2023/06/05 09:55:57;;;;;;;2.85;2.25;;;20.80;55.80;;;;;;4181559;28;20048;-57
2023/06/05 09:58:39;;;;;;;2.70;2.50;;;20.90;55.80;;;;;;4184260;28;20399;-58
2023/06/05 10:01:24;;;;;;;3.08;2.22;;;20.90;55.70;;;;;;4175833;28;20056;-58
2023/06/05 10:04:11;;;;;;;2.80;2.20;;;20.90;55.70;;;;;;4179215;28;20577;-58
2023/06/05 10:06:53;;;;;;;2.42;2.22;;;20.90;55.50;;;;;;4178914;28;20463;-59
2023/06/05 10:09:34;;;;;;;3.08;2.58;;;20.90;55.50;;;;;;4180672;28;20105;-58
2023/06/05 10:12:16;;;;;;;;;;;20.90;55.70;;;;;;4183706;28;20195;-59
2023/06/05 10:14:58;;;;;;;2.33;2.15;;;21.00;55.90;;;;;;4185632;28;19931;-59
2023/06/05 10:17:40;;;;;;;3.38;2.72;;;21.00;55.70;;;;;;4182713;28;20054;-57
2023/06/05 10:20:23;;;;;;;3.30;2.38;;;21.00;55.50;;;;;;4181450;28;20056;-57
2023/06/05 10:23:06;;;;;;;4.03;2.25;;;21.00;55.40;;;;;;4175513;28;20060;-58
2023/06/05 10:25:48;;;;;;;2.25;2.10;;;21.00;55.40;;;;;;4186480;28;20404;-58
2023/06/05 10:28:42;;;;;;;2.05;1.95;;;21.10;55.40;;;;;;4184397;28;20063;-58
2023/06/05 10:31:37;;;;;;;2.55;2.10;;;21.10;55.40;;;;;;4183747;28;20411;-58
2023/06/05 10:34:38;;;;;;;2.65;2.38;;;21.10;55.30;;;;;;4185606;28;20094;-59
2023/06/05 10:37:34;;;;;;;2.85;2.10;;;21.10;55.50;;;;;;4179010;28;20183;-58
2023/06/05 10:40:17;;;;;;;2.50;2.30;;;21.10;55.60;;;;;;4177710;28;20160;-58
2023/06/05 10:43:26;;;;;;;3.05;2.75;;;21.10;55.40;;;;;;4187017;28;20048;-58
2023/06/05 10:46:29;;;;;;;2.92;2.00;;;21.20;55.40;;;;;;4183009;28;20063;-58
2023/06/05 10:49:12;;;;;;;3.00;2.33;;;21.20;55.40;;;;;;4185417;28;20832;-57
2023/06/05 10:51:58;;;;;;;2.70;2.47;;;21.20;55.60;;;;;;4185419;28;20094;-58
2023/06/05 10:54:56;;;;;;;2.58;2.47;;;21.20;55.60;;;;;;4195059;28;20419;-57
2023/06/05 10:58:09;;;;;;;3.80;2.42;;;21.20;55.40;;;;;;4178372;28;20403;-59
2023/06/05 11:01:19;;;;;;;2.30;2.10;;;21.20;55.50;;;;;;4179989;28;20063;-57
2023/06/05 11:04:00;;;;;;;2.30;2.13;;;21.20;55.90;;;;;;4182333;28;20114;-57
2023/06/05 11:07:17;;;;;;;2.85;2.65;;;21.30;56.00;;;;;;4177942;28;20071;-57
2023/06/05 11:10:15;;;;;;;2.95;2.50;;;21.20;56.00;;;;;;4176021;28;20542;-57
2023/06/05 11:13:03;;;;;;;2.40;2.20;;;21.30;56.00;;;;;;4181551;28;20227;-57
2023/06/05 11:15:45;;;;;;;4.28;2.40;;;21.30;56.10;;;;;;4181335;28;20056;-57
2023/06/05 11:18:34;;;;;;;3.20;2.50;;;21.30;56.20;;;;;;4176770;28;20167;-57
2023/06/05 11:21:15;;;;;;;4.40;2.08;;;21.30;56.40;;;;;;4182507;28;20461;-57
2023/06/05 11:24:15;;;;;;;3.63;2.55;;;21.30;56.40;;;;;;4183831;28;20044;-58
2023/06/05 11:26:57;;;;;;;3.45;3.20;;;21.40;56.50;;;;;;4173657;28;20052;-57
2023/06/05 11:29:38;;;;;;;2.60;2.40;;;21.40;56.50;;;;;;4190034;28;20063;-58
2023/06/05 11:32:19;;;;;;;3.08;2.60;;;21.40;56.40;;;;;;4174439;28;20503;-57
2023/06/05 11:35:02;;;;;;;2.90;2.28;;;21.40;56.30;;;;;;4185629;28;20052;-57
2023/06/05 11:37:43;;;;;;;2.55;2.45;;;21.40;56.20;;;;;;4182158;28;20059;-58
2023/06/05 11:40:39;;;;;;;2.63;2.42;;;21.40;56.30;;;;;;4174127;28;20059;-57
2023/06/05 11:43:22;;;;;;;3.30;2.30;;;21.50;56.30;;;;;;4185792;28;20051;-57
2023/06/05 11:46:03;;;;;;;3.20;2.60;;;21.50;56.50;;;;;;4189605;28;20142;-53
2023/06/05 11:48:45;;;;;;;2.70;2.50;;;21.50;57.20;;;;;;4174079;28;20059;-60
2023/06/05 11:51:33;;;;;;;2.72;2.38;;;21.50;57.00;;;;;;4178864;28;20068;-60
2023/06/05 11:54:29;;;;;;;3.90;2.17;;;21.50;57.10;;;;;;4175675;28;20052;-58
2023/06/05 11:57:12;;;;;;;2.95;2.58;;;21.50;57.90;;;;;;4173633;28;20055;-58
2023/06/05 11:59:54;;;;;;;2.78;2.55;;;21.50;57.60;;;;;;4174536;28;20126;-58
2023/06/05 12:02:36;;;;;;;2.13;2.03;;;21.50;57.10;;;;;;4175841;28;20585;-58
2023/06/05 12:05:17;;;;;;;2.55;2.40;;;21.50;57.00;;;;;;4175095;28;20452;-58
2023/06/05 12:07:58;;;;;;;2.67;2.53;;;21.60;57.00;;;;;;4190016;28;20731;-58
2023/06/05 12:10:40;;;;;;;;;;;21.60;57.10;;;;;;4183925;28;20055;-58
2023/06/05 12:13:21;;;;;;;;;;;21.60;56.90;;;;;;4177570;28;19931;-59
2023/06/05 12:16:03;;;;;;;2.75;2.03;;;21.60;56.80;;;;;;4175980;28;19974;-59
2023/06/05 12:18:44;;;;;;;2.50;2.40;;;21.50;56.80;;;;;;4175168;28;20055;-59
2023/06/05 12:21:26;;;;;;;2.58;2.38;;;21.50;56.60;;;;;;4178634;28;20091;-59
2023/06/05 12:24:08;;;;;;;3.38;2.47;;;21.60;56.50;;;;;;4184266;28;20075;-60
2023/06/05 12:26:51;;;;;;;;;;;21.60;56.70;;;;;;4174814;28;20055;-59
2023/06/05 12:29:34;;;;;;;2.70;2.50;;;21.60;56.70;;;;;;4188771;28;19959;-59
2023/06/05 12:32:24;;;;;;;2.35;2.22;;;21.60;56.60;;;;;;4179582;28;20598;-59
2023/06/05 12:35:09;;;;;;;2.97;2.72;;;21.60;56.60;;;;;;4172724;28;20114;-59
2023/06/05 12:37:50;;;;;;;3.42;2.97;;;21.60;56.70;;;;;;4173937;28;20079;-59
2023/06/05 12:40:31;;;;;;;3.40;3.10;;;21.60;56.80;;;;;;4189463;28;20063;-59
2023/06/05 12:43:18;;;;;;;3.58;2.85;;;21.60;56.80;;;;;;4173597;28;20549;-59
2023/06/05 12:45:59;;;;;;;3.13;2.78;;;21.60;56.80;;;;;;4179021;28;20060;-60
2023/06/05 12:48:41;;;;;;;3.78;2.95;;;21.60;56.50;;;;;;4184201;28;20064;-60
2023/06/05 12:51:22;;;;;;;3.30;3.08;;;21.60;56.50;;;;;;4181120;28;20519;-60
2023/06/05 12:54:03;;;;;;;3.67;3.25;;;21.60;56.40;;;;;;4189363;28;20514;-59
2023/06/05 12:56:45;;;;;;;4.13;3.72;;;21.70;56.50;;;;;;4173402;28;20098;-59
2023/06/05 12:59:26;;;;;;;4.75;4.35;;;21.70;57.40;;;;;;4189034;28;20518;-59
2023/06/05 13:02:07;;;;;;;3.72;3.50;;;21.70;56.60;;;;;;4189340;28;20055;-59
2023/06/05 13:04:50;;;;;;;3.58;3.28;;;21.60;56.50;;;;;;4173914;28;20060;-58
2023/06/05 13:07:31;;;;;;;5.05;3.63;;;21.60;56.30;;;;;;4187071;28;20060;-58
2023/06/05 13:10:12;;;;;;;3.78;3.42;;;21.70;56.50;;;;;;4189195;28;20060;-58
2023/06/05 13:12:53;;;;;;;3.88;3.58;;;21.70;56.50;;;;;;4176167;28;20068;-58
2023/06/05 13:15:34;;;;;;;6.45;4.35;;;21.70;56.50;;;;;;4178012;28;20051;-58
2023/06/05 13:18:16;;;;;;;4.30;3.90;;;21.70;56.50;;;;;;4177908;28;20051;-58
2023/06/05 13:20:58;;;;;;;;;;;21.70;56.50;;;;;;4188828;28;20055;-58
2023/06/05 13:23:39;;;;;;;5.45;4.95;;;21.70;56.70;;;;;;4188701;28;20375;-58
2023/06/05 13:26:20;;;;;;;5.18;4.50;;;21.60;56.50;;;;;;4173166;28;20106;-58
2023/06/05 13:29:01;;;;;;;5.90;5.40;;;21.70;56.60;;;;;;4182809;28;20055;-58
2023/06/05 13:31:42;;;;;;;8.93;6.10;;;21.60;56.60;;;;;;4176830;28;20183;-58
2023/06/05 13:34:23;;;;;;;7.60;5.53;;;21.60;56.60;;;;;;4179846;28;20055;-60
2023/06/05 13:37:06;;;;;;;7.80;5.75;;;21.70;56.70;;;;;;4185794;28;20109;-58
2023/06/05 13:39:54;;;;;;;6.68;5.95;;;21.70;56.70;;;;;;4177082;28;20055;-58
2023/06/05 13:42:35;;;;;;;6.97;6.03;;;21.70;56.70;;;;;;4182905;28;20194;-58
2023/06/05 13:45:16;;;;;;;6.05;5.55;;;21.70;56.70;;;;;;4179096;28;20056;-58
2023/06/05 13:47:57;;;;;;;6.47;5.80;;;21.70;56.70;;;;;;4175344;28;20055;-58
2023/06/05 13:50:38;;;;;;;;;;;21.70;56.70;;;;;;4181466;28;20494;-58
2023/06/05 13:53:21;;;;;;;6.07;5.50;;;21.70;56.80;;;;;;4176552;28;19928;-58
2023/06/05 13:56:02;;;;;;;8.02;5.57;;;21.70;56.60;;;;;;4191987;28;20109;-58
2023/06/05 13:58:43;;;;;;;5.63;5.05;;;21.70;56.70;;;;;;4189266;28;20503;-58
2023/06/05 14:01:24;;;;;;;;;;;21.70;57.40;;;;;;4187227;28;20107;-58
2023/06/05 14:04:05;;;;;;;5.00;4.50;;;21.70;56.70;;;;;;4174624;28;20475;-58
2023/06/05 14:06:47;;;;;;;6.45;4.97;;;21.70;56.50;;;;;;4185103;28;20052;-59
2023/06/05 14:09:29;;;;;;;6.00;4.50;;;21.60;56.40;;;;;;4179288;28;20174;-58
2023/06/05 14:12:10;;;;;;;6.53;5.05;;;21.60;56.50;;;;;;4189901;28;20059;-58
2023/06/05 14:14:51;;;;;;;6.13;4.30;;;21.60;56.50;;;;;;4182387;28;20522;-58